Terminal Aerodrome Forecast
Issued by NWS Louisville, KY

Home | Current Version | Previous Version | Text Only | Print | Product List | Glossary On
Versions: 1 2 3 4 5 6 7 8 9 10 11 12 13 14 15 16 17 18 19 20 21 22
000
FTUS43 KLMK 161700
TAFBWG
TAF
KBWG 161720Z 1618/1718 25011G18KT P6SM SCT012 OVC022
      TEMPO 1619/1623 BKN012
     FM170100 26008KT P6SM BKN020
     FM171100 28004KT P6SM SCT025
     FM171500 29004KT P6SM SCT100 BKN250=

USA.gov is the U.S. government's official web portal to all federal, state and local government web resources and services.